Oberon, North Dakota
Current Conditions -  °F | °C
As of 12:55 PM on Thursday 23 Oct 2014 (Local Time) from KDVL Reporting Station
Clear Clear  
Wind Chill: 61°   Ceiling: Unl
Heat Index: 61°   Visibility: 10mi
Dew Point: 37°   Wind: 13mph
Humidity: 42%   Direction: 230°SW
Pressure: 29.82"   Gusts: NA
Location:  47.92°N, 99.2°W
Report Text: KDVL 231755Z AUTO 23011KT 10SM CLR 16/03 A2982 RMK AO1 10160 20070 57007
Loading
Personal Weather Stations






























Interactive Weather Map
Tropical Storm Tracking
New forecast layout! Learn more

10-Day Weather Forecast

Advertisements
Track Severe Weather on mobile